Terminal Aerodrome Forecast
Issued by NWS Billings, MT

Home | Current Version | Previous Version | Text Only | Print | Product List | Glossary On
Versions: 1 2 3 4 5 6 7 8 9 10 11 12 13 14 15 16 17 18 19 20 21 22 23 24 25 26 27 28 29 30
000
FTUS45 KBYZ 241251 AAA
TAFSHR
TAF AMD
KSHR 241251Z 2413/2512 32012KT 4SM -SN BR VCSH FEW008 OVC020
      TEMPO 2413/2415 31021G31KT 1 1/2SM -SHSN BKN012
     FM241500 31023G31KT P6SM OVC060
     FM250100 30010KT P6SM OVC250=

USA.gov is the U.S. government's official web portal to all federal, state and local government web resources and services.